sensor_id;sensor_type;location;lat;lon;timestamp;temperature;humidity
2130;DHT22;1071;52.544;13.374;2023-06-14T00:02:18;17.90;78.00
2130;DHT22;1071;52.544;13.374;2023-06-14T00:04:45;17.80;78.20
2130;DHT22;1071;52.544;13.374;2023-06-14T00:07:15;17.80;78.80
2130;DHT22;1071;52.544;13.374;2023-06-14T00:09:42;17.70;79.10
2130;DHT22;1071;52.544;13.374;2023-06-14T00:12:09;17.70;79.30
2130;DHT22;1071;52.544;13.374;2023-06-14T00:14:36;17.60;79.70
2130;DHT22;1071;52.544;13.374;2023-06-14T00:17:04;17.50;80.30
2130;DHT22;1071;52.544;13.374;2023-06-14T00:19:32;17.50;80.70
2130;DHT22;1071;52.544;13.374;2023-06-14T00:22:01;17.40;80.80
2130;DHT22;1071;52.544;13.374;2023-06-14T00:24:29;17.40;81.50
2130;DHT22;1071;52.544;13.374;2023-06-14T00:26:56;17.30;81.70
2130;DHT22;1071;52.544;13.374;2023-06-14T00:29:24;17.20;82.20
2130;DHT22;1071;52.544;13.374;2023-06-14T00:31:51;17.20;82.50
2130;DHT22;1071;52.544;13.374;2023-06-14T00:34:18;17.20;83.00
2130;DHT22;1071;52.544;13.374;2023-06-14T00:36:45;17.20;83.40
2130;DHT22;1071;52.544;13.374;2023-06-14T00:39:12;17.20;83.60
2130;DHT22;1071;52.544;13.374;2023-06-14T00:41:41;17.10;84.00
2130;DHT22;1071;52.544;13.374;2023-06-14T00:44:08;17.10;84.40
2130;DHT22;1071;52.544;13.374;2023-06-14T00:46:35;17.10;84.80
2130;DHT22;1071;52.544;13.374;2023-06-14T00:49:02;17.10;85.00
2130;DHT22;1071;52.544;13.374;2023-06-14T00:51:30;17.10;85.20
2130;DHT22;1071;52.544;13.374;2023-06-14T00:53:57;17.10;85.60
2130;DHT22;1071;52.544;13.374;2023-06-14T00:56:24;17.00;85.80
2130;DHT22;1071;52.544;13.374;2023-06-14T00:58:55;17.10;86.20
2130;DHT22;1071;52.544;13.374;2023-06-14T01:01:26;17.10;86.60
2130;DHT22;1071;52.544;13.374;2023-06-14T01:03:55;17.00;86.90
2130;DHT22;1071;52.544;13.374;2023-06-14T01:06:29;17.10;87.20
2130;DHT22;1071;52.544;13.374;2023-06-14T01:09:07;17.10;87.60
2130;DHT22;1071;52.544;13.374;2023-06-14T01:11:43;17.10;87.80
2130;DHT22;1071;52.544;13.374;2023-06-14T01:14:16;17.10;88.80
2130;DHT22;1071;52.544;13.374;2023-06-14T01:16:45;17.10;88.40
2130;DHT22;1071;52.544;13.374;2023-06-14T01:19:16;17.00;89.30
2130;DHT22;1071;52.544;13.374;2023-06-14T01:21:43;17.10;89.60
2130;DHT22;1071;52.544;13.374;2023-06-14T01:24:11;17.10;90.00
2130;DHT22;1071;52.544;13.374;2023-06-14T01:26:38;17.10;90.20
2130;DHT22;1071;52.544;13.374;2023-06-14T01:29:11;17.10;90.30
2130;DHT22;1071;52.544;13.374;2023-06-14T01:31:42;17.10;90.40
2130;DHT22;1071;52.544;13.374;2023-06-14T01:34:12;17.10;90.60
2130;DHT22;1071;52.544;13.374;2023-06-14T01:36:41;17.10;90.60
2130;DHT22;1071;52.544;13.374;2023-06-14T01:39:14;17.10;90.70
2130;DHT22;1071;52.544;13.374;2023-06-14T01:41:41;17.10;90.80
2130;DHT22;1071;52.544;13.374;2023-06-14T01:44:09;17.10;90.80
2130;DHT22;1071;52.544;13.374;2023-06-14T01:46:38;17.10;90.80
2130;DHT22;1071;52.544;13.374;2023-06-14T01:49:05;17.10;90.80
2130;DHT22;1071;52.544;13.374;2023-06-14T01:51:32;17.10;90.80
2130;DHT22;1071;52.544;13.374;2023-06-14T01:54:03;17.20;90.90
2130;DHT22;1071;52.544;13.374;2023-06-14T01:56:35;17.10;90.80
2130;DHT22;1071;52.544;13.374;2023-06-14T01:59:03;17.10;90.80
2130;DHT22;1071;52.544;13.374;2023-06-14T02:01:30;17.10;90.90
2130;DHT22;1071;52.544;13.374;2023-06-14T02:03:59;17.10;90.90
2130;DHT22;1071;52.544;13.374;2023-06-14T02:06:27;17.10;90.90
2130;DHT22;1071;52.544;13.374;2023-06-14T02:09:00;17.10;91.10
2130;DHT22;1071;52.544;13.374;2023-06-14T02:11:29;17.10;91.10
2130;DHT22;1071;52.544;13.374;2023-06-14T02:13:57;17.00;91.10
2130;DHT22;1071;52.544;13.374;2023-06-14T02:16:25;17.00;91.30
2130;DHT22;1071;52.544;13.374;2023-06-14T02:18:55;17.00;91.50
2130;DHT22;1071;52.544;13.374;2023-06-14T02:21:22;16.90;91.60
2130;DHT22;1071;52.544;13.374;2023-06-14T02:23:49;16.90;91.90
2130;DHT22;1071;52.544;13.374;2023-06-14T02:26:17;16.90;92.00
2130;DHT22;1071;52.544;13.374;2023-06-14T02:28:44;16.90;92.20
2130;DHT22;1071;52.544;13.374;2023-06-14T02:31:13;16.80;92.30
2130;DHT22;1071;52.544;13.374;2023-06-14T02:33:40;16.80;92.40
2130;DHT22;1071;52.544;13.374;2023-06-14T02:36:07;16.80;92.50
2130;DHT22;1071;52.544;13.374;2023-06-14T02:38:34;16.80;92.60
2130;DHT22;1071;52.544;13.374;2023-06-14T02:41:04;16.80;92.80
2130;DHT22;1071;52.544;13.374;2023-06-14T02:43:31;16.80;93.10
2130;DHT22;1071;52.544;13.374;2023-06-14T02:46:00;16.70;93.20
2130;DHT22;1071;52.544;13.374;2023-06-14T02:48:29;16.70;93.40
2130;DHT22;1071;52.544;13.374;2023-06-14T02:50:56;16.70;93.70
2130;DHT22;1071;52.544;13.374;2023-06-14T02:53:23;16.60;93.80
2130;DHT22;1071;52.544;13.374;2023-06-14T02:55:52;16.60;94.00
2130;DHT22;1071;52.544;13.374;2023-06-14T02:58:20;16.60;94.20
2130;DHT22;1071;52.544;13.374;2023-06-14T03:00:50;16.60;94.30
2130;DHT22;1071;52.544;13.374;2023-06-14T03:03:18;16.60;94.50
2130;DHT22;1071;52.544;13.374;2023-06-14T03:05:49;16.60;94.70
2130;DHT22;1071;52.544;13.374;2023-06-14T03:08:16;16.50;94.90
2130;DHT22;1071;52.544;13.374;2023-06-14T03:10:45;16.50;95.10
2130;DHT22;1071;52.544;13.374;2023-06-14T03:13:15;16.50;95.30
2130;DHT22;1071;52.544;13.374;2023-06-14T03:15:42;16.50;95.50
2130;DHT22;1071;52.544;13.374;2023-06-14T03:18:11;16.50;95.70
2130;DHT22;1071;52.544;13.374;2023-06-14T03:20:38;16.40;95.80
2130;DHT22;1071;52.544;13.374;2023-06-14T03:23:07;16.40;96.20
2130;DHT22;1071;52.544;13.374;2023-06-14T03:25:35;16.40;96.80
2130;DHT22;1071;52.544;13.374;2023-06-14T03:28:04;16.40;96.60
2130;DHT22;1071;52.544;13.374;2023-06-14T03:30:31;16.40;96.70
2130;DHT22;1071;52.544;13.374;2023-06-14T03:32:58;16.40;96.80
2130;DHT22;1071;52.544;13.374;2023-06-14T03:35:26;16.40;97.10
2130;DHT22;1071;52.544;13.374;2023-06-14T03:37:53;16.40;97.30
2130;DHT22;1071;52.544;13.374;2023-06-14T03:40:22;16.40;97.40
2130;DHT22;1071;52.544;13.374;2023-06-14T03:42:52;16.40;97.50
2130;DHT22;1071;52.544;13.374;2023-06-14T03:45:19;16.50;97.60
2130;DHT22;1071;52.544;13.374;2023-06-14T03:47:48;16.50;97.80
2130;DHT22;1071;52.544;13.374;2023-06-14T03:50:17;16.50;98.00
2130;DHT22;1071;52.544;13.374;2023-06-14T03:52:44;16.50;98.20
2130;DHT22;1071;52.544;13.374;2023-06-14T03:55:16;16.50;98.40
2130;DHT22;1071;52.544;13.374;2023-06-14T03:57:44;16.50;98.40
2130;DHT22;1071;52.544;13.374;2023-06-14T04:00:12;16.50;98.60
2130;DHT22;1071;52.544;13.374;2023-06-14T04:02:40;16.50;98.70
2130;DHT22;1071;52.544;13.374;2023-06-14T04:05:09;16.60;98.90
2130;DHT22;1071;52.544;13.374;2023-06-14T04:07:36;16.60;98.90
2130;DHT22;1071;52.544;13.374;2023-06-14T04:10:11;16.60;99.00
2130;DHT22;1071;52.544;13.374;2023-06-14T04:12:39;16.70;99.00
2130;DHT22;1071;52.544;13.374;2023-06-14T04:15:08;16.70;99.00
2130;DHT22;1071;52.544;13.374;2023-06-14T04:17:37;16.80;99.20
2130;DHT22;1071;52.544;13.374;2023-06-14T04:20:06;16.80;99.20
2130;DHT22;1071;52.544;13.374;2023-06-14T04:22:35;16.90;99.20
2130;DHT22;1071;52.544;13.374;2023-06-14T04:25:03;16.90;99.20
2130;DHT22;1071;52.544;13.374;2023-06-14T04:27:31;17.00;99.30
2130;DHT22;1071;52.544;13.374;2023-06-14T04:30:02;17.00;99.30
2130;DHT22;1071;52.544;13.374;2023-06-14T04:32:33;17.00;99.30
2130;DHT22;1071;52.544;13.374;2023-06-14T04:35:05;17.10;99.30
2130;DHT22;1071;52.544;13.374;2023-06-14T04:37:32;17.10;99.20
2130;DHT22;1071;52.544;13.374;2023-06-14T04:40:00;17.20;99.20
2130;DHT22;1071;52.544;13.374;2023-06-14T04:42:30;17.20;99.20
2130;DHT22;1071;52.544;13.374;2023-06-14T04:44:57;17.30;99.30
2130;DHT22;1071;52.544;13.374;2023-06-14T04:47:24;17.30;99.40
2130;DHT22;1071;52.544;13.374;2023-06-14T04:49:57;17.40;99.30
2130;DHT22;1071;52.544;13.374;2023-06-14T04:52:25;17.40;99.30
2130;DHT22;1071;52.544;13.374;2023-06-14T04:54:55;17.40;99.40
2130;DHT22;1071;52.544;13.374;2023-06-14T04:57:22;17.50;99.40
2130;DHT22;1071;52.544;13.374;2023-06-14T04:59:51;17.50;99.30
2130;DHT22;1071;52.544;13.374;2023-06-14T05:02:20;17.60;99.30
2130;DHT22;1071;52.544;13.374;2023-06-14T05:04:47;17.70;99.30
2130;DHT22;1071;52.544;13.374;2023-06-14T05:07:19;17.70;99.20
2130;DHT22;1071;52.544;13.374;2023-06-14T05:09:49;17.80;99.10
2130;DHT22;1071;52.544;13.374;2023-06-14T05:12:16;17.80;98.90
2130;DHT22;1071;52.544;13.374;2023-06-14T05:14:58;17.90;98.90
2130;DHT22;1071;52.544;13.374;2023-06-14T05:17:36;17.90;98.80
2130;DHT22;1071;52.544;13.374;2023-06-14T05:20:07;18.00;98.70
2130;DHT22;1071;52.544;13.374;2023-06-14T05:22:36;18.00;98.70
2130;DHT22;1071;52.544;13.374;2023-06-14T05:25:04;18.00;98.50
2130;DHT22;1071;52.544;13.374;2023-06-14T05:27:31;18.10;98.60
2130;DHT22;1071;52.544;13.374;2023-06-14T05:30:03;18.10;98.40
2130;DHT22;1071;52.544;13.374;2023-06-14T05:32:31;18.20;98.30
2130;DHT22;1071;52.544;13.374;2023-06-14T05:34:58;18.20;98.30
2130;DHT22;1071;52.544;13.374;2023-06-14T05:37:25;18.20;98.30
2130;DHT22;1071;52.544;13.374;2023-06-14T05:39:54;18.30;98.20
2130;DHT22;1071;52.544;13.374;2023-06-14T05:42:21;18.20;98.20
2130;DHT22;1071;52.544;13.374;2023-06-14T05:44:48;18.30;98.30
2130;DHT22;1071;52.544;13.374;2023-06-14T05:47:17;18.30;98.20
2130;DHT22;1071;52.544;13.374;2023-06-14T05:49:45;18.40;98.00
2130;DHT22;1071;52.544;13.374;2023-06-14T05:52:12;18.40;98.00
2130;DHT22;1071;52.544;13.374;2023-06-14T05:54:39;18.40;98.00
2130;DHT22;1071;52.544;13.374;2023-06-14T05:57:08;18.40;98.00
2130;DHT22;1071;52.544;13.374;2023-06-14T05:59:36;18.40;97.90
2130;DHT22;1071;52.544;13.374;2023-06-14T06:02:03;18.40;97.80
2130;DHT22;1071;52.544;13.374;2023-06-14T06:04:31;18.50;97.80
2130;DHT22;1071;52.544;13.374;2023-06-14T06:07:00;18.50;97.70
2130;DHT22;1071;52.544;13.374;2023-06-14T06:09:35;18.50;97.70
2130;DHT22;1071;52.544;13.374;2023-06-14T06:12:06;18.60;97.70
2130;DHT22;1071;52.544;13.374;2023-06-14T06:14:35;18.60;97.80
2130;DHT22;1071;52.544;13.374;2023-06-14T06:17:06;18.50;97.90
2130;DHT22;1071;52.544;13.374;2023-06-14T06:19:33;18.50;97.90
2130;DHT22;1071;52.544;13.374;2023-06-14T06:22:00;18.50;97.90
2130;DHT22;1071;52.544;13.374;2023-06-14T06:24:27;18.60;98.00
2130;DHT22;1071;52.544;13.374;2023-06-14T06:26:55;18.60;98.10
2130;DHT22;1071;52.544;13.374;2023-06-14T06:29:23;18.60;98.00
2130;DHT22;1071;52.544;13.374;2023-06-14T06:31:54;18.70;97.90
2130;DHT22;1071;52.544;13.374;2023-06-14T06:34:21;18.70;97.80
2130;DHT22;1071;52.544;13.374;2023-06-14T06:36:48;18.70;97.80
2130;DHT22;1071;52.544;13.374;2023-06-14T06:39:16;18.80;97.70
2130;DHT22;1071;52.544;13.374;2023-06-14T06:41:47;18.70;97.80
2130;DHT22;1071;52.544;13.374;2023-06-14T06:44:17;18.80;97.80
2130;DHT22;1071;52.544;13.374;2023-06-14T06:46:44;18.80;97.70
2130;DHT22;1071;52.544;13.374;2023-06-14T06:49:14;18.80;97.70
2130;DHT22;1071;52.544;13.374;2023-06-14T06:51:42;18.80;97.70
2130;DHT22;1071;52.544;13.374;2023-06-14T06:54:10;18.80;97.70
2130;DHT22;1071;52.544;13.374;2023-06-14T06:56:37;18.90;97.70
2130;DHT22;1071;52.544;13.374;2023-06-14T06:59:04;18.90;97.70
2130;DHT22;1071;52.544;13.374;2023-06-14T07:01:31;18.90;97.60
2130;DHT22;1071;52.544;13.374;2023-06-14T07:03:59;18.90;97.50
2130;DHT22;1071;52.544;13.374;2023-06-14T07:06:28;19.00;97.50
2130;DHT22;1071;52.544;13.374;2023-06-14T07:08:55;19.10;97.50
2130;DHT22;1071;52.544;13.374;2023-06-14T07:11:26;19.10;97.30
2130;DHT22;1071;52.544;13.374;2023-06-14T07:13:53;19.10;97.30
2130;DHT22;1071;52.544;13.374;2023-06-14T07:16:21;19.20;97.30
2130;DHT22;1071;52.544;13.374;2023-06-14T07:18:52;19.20;97.20
2130;DHT22;1071;52.544;13.374;2023-06-14T07:21:19;19.20;97.10
2130;DHT22;1071;52.544;13.374;2023-06-14T07:23:47;19.30;97.10
2130;DHT22;1071;52.544;13.374;2023-06-14T07:26:14;19.30;97.00
2130;DHT22;1071;52.544;13.374;2023-06-14T07:28:41;19.40;97.00
2130;DHT22;1071;52.544;13.374;2023-06-14T07:31:10;19.40;96.90
2130;DHT22;1071;52.544;13.374;2023-06-14T07:33:38;19.50;96.80
2130;DHT22;1071;52.544;13.374;2023-06-14T07:36:05;19.50;96.60
2130;DHT22;1071;52.544;13.374;2023-06-14T07:38:33;19.50;96.50
2130;DHT22;1071;52.544;13.374;2023-06-14T07:41:02;19.60;96.50
2130;DHT22;1071;52.544;13.374;2023-06-14T07:43:29;19.70;96.50
2130;DHT22;1071;52.544;13.374;2023-06-14T07:45:57;19.80;96.50
2130;DHT22;1071;52.544;13.374;2023-06-14T07:48:25;19.90;96.30
2130;DHT22;1071;52.544;13.374;2023-06-14T07:50:54;20.20;96.10
2130;DHT22;1071;52.544;13.374;2023-06-14T07:53:21;20.30;95.60
2130;DHT22;1071;52.544;13.374;2023-06-14T07:55:49;20.50;95.30
2130;DHT22;1071;52.544;13.374;2023-06-14T07:58:17;20.70;94.90
2130;DHT22;1071;52.544;13.374;2023-06-14T08:00:47;20.90;94.60
2130;DHT22;1071;52.544;13.374;2023-06-14T08:03:17;21.00;94.10
2130;DHT22;1071;52.544;13.374;2023-06-14T08:05:45;21.10;93.80
2130;DHT22;1071;52.544;13.374;2023-06-14T08:08:12;21.20;93.40
2130;DHT22;1071;52.544;13.374;2023-06-14T08:10:39;21.40;93.20
2130;DHT22;1071;52.544;13.374;2023-06-14T08:13:06;21.60;92.90
2130;DHT22;1071;52.544;13.374;2023-06-14T08:15:36;21.80;92.50
2130;DHT22;1071;52.544;13.374;2023-06-14T08:18:03;21.90;91.60
2130;DHT22;1071;52.544;13.374;2023-06-14T08:20:30;22.10;91.50
2130;DHT22;1071;52.544;13.374;2023-06-14T08:22:57;22.30;91.10
2130;DHT22;1071;52.544;13.374;2023-06-14T08:25:24;22.40;90.70
2130;DHT22;1071;52.544;13.374;2023-06-14T08:27:51;22.50;90.10
2130;DHT22;1071;52.544;13.374;2023-06-14T08:30:19;22.50;89.90
2130;DHT22;1071;52.544;13.374;2023-06-14T08:32:48;22.60;89.80
2130;DHT22;1071;52.544;13.374;2023-06-14T08:35:15;22.60;89.40
2130;DHT22;1071;52.544;13.374;2023-06-14T08:37:43;22.70;89.30
2130;DHT22;1071;52.544;13.374;2023-06-14T08:40:18;22.90;88.40
2130;DHT22;1071;52.544;13.374;2023-06-14T08:42:50;23.00;86.70
2130;DHT22;1071;52.544;13.374;2023-06-14T08:45:19;23.10;85.80
2130;DHT22;1071;52.544;13.374;2023-06-14T08:47:56;23.10;85.60
2130;DHT22;1071;52.544;13.374;2023-06-14T08:50:27;23.20;85.20
2130;DHT22;1071;52.544;13.374;2023-06-14T08:52:57;23.20;85.00
2130;DHT22;1071;52.544;13.374;2023-06-14T08:55:27;23.10;84.20
2130;DHT22;1071;52.544;13.374;2023-06-14T08:57:56;23.10;84.20
2130;DHT22;1071;52.544;13.374;2023-06-14T09:00:24;23.10;83.90
2130;DHT22;1071;52.544;13.374;2023-06-14T09:02:53;23.10;83.50
2130;DHT22;1071;52.544;13.374;2023-06-14T09:05:23;23.10;82.60
2130;DHT22;1071;52.544;13.374;2023-06-14T09:07:54;22.90;80.90
2130;DHT22;1071;52.544;13.374;2023-06-14T09:10:22;22.90;80.90
2130;DHT22;1071;52.544;13.374;2023-06-14T09:12:51;22.80;81.30
2130;DHT22;1071;52.544;13.374;2023-06-14T09:15:18;22.80;81.50
2130;DHT22;1071;52.544;13.374;2023-06-14T09:17:46;22.80;81.40
2130;DHT22;1071;52.544;13.374;2023-06-14T09:20:14;22.80;80.60
2130;DHT22;1071;52.544;13.374;2023-06-14T09:22:43;22.80;80.50
2130;DHT22;1071;52.544;13.374;2023-06-14T09:25:11;22.80;80.10
2130;DHT22;1071;52.544;13.374;2023-06-14T09:27:41;22.80;80.70
2130;DHT22;1071;52.544;13.374;2023-06-14T09:30:11;22.80;81.20
2130;DHT22;1071;52.544;13.374;2023-06-14T09:32:41;22.80;81.50
2130;DHT22;1071;52.544;13.374;2023-06-14T09:35:09;22.80;82.70
2130;DHT22;1071;52.544;13.374;2023-06-14T09:37:38;22.90;81.70
2130;DHT22;1071;52.544;13.374;2023-06-14T09:40:07;22.90;81.70
2130;DHT22;1071;52.544;13.374;2023-06-14T09:42:38;22.80;81.90
2130;DHT22;1071;52.544;13.374;2023-06-14T09:45:08;22.80;80.90
2130;DHT22;1071;52.544;13.374;2023-06-14T09:47:36;22.80;80.60
2130;DHT22;1071;52.544;13.374;2023-06-14T09:50:08;22.90;80.20
2130;DHT22;1071;52.544;13.374;2023-06-14T09:52:35;22.90;80.10
2130;DHT22;1071;52.544;13.374;2023-06-14T09:55:11;22.90;79.90
2130;DHT22;1071;52.544;13.374;2023-06-14T09:57:48;22.90;79.80
2130;DHT22;1071;52.544;13.374;2023-06-14T10:00:17;23.00;79.70
2130;DHT22;1071;52.544;13.374;2023-06-14T10:02:51;22.80;79.70
2130;DHT22;1071;52.544;13.374;2023-06-14T10:05:21;22.90;80.10
2130;DHT22;1071;52.544;13.374;2023-06-14T10:07:53;22.90;79.90
2130;DHT22;1071;52.544;13.374;2023-06-14T10:10:23;23.00;79.80
2130;DHT22;1071;52.544;13.374;2023-06-14T10:12:51;22.90;79.70
2130;DHT22;1071;52.544;13.374;2023-06-14T10:15:22;22.90;79.50
2130;DHT22;1071;52.544;13.374;2023-06-14T10:17:53;22.80;79.80
2130;DHT22;1071;52.544;13.374;2023-06-14T10:20:27;22.80;79.80
2130;DHT22;1071;52.544;13.374;2023-06-14T10:23:00;22.70;79.60
2130;DHT22;1071;52.544;13.374;2023-06-14T10:25:31;22.60;79.40
2130;DHT22;1071;52.544;13.374;2023-06-14T10:28:16;22.60;79.40
2130;DHT22;1071;52.544;13.374;2023-06-14T10:31:03;22.60;80.60
2130;DHT22;1071;52.544;13.374;2023-06-14T10:33:33;22.60;79.60
2130;DHT22;1071;52.544;13.374;2023-06-14T10:36:09;22.70;79.80
2130;DHT22;1071;52.544;13.374;2023-06-14T10:38:38;22.80;79.90
2130;DHT22;1071;52.544;13.374;2023-06-14T10:41:07;22.80;79.80
2130;DHT22;1071;52.544;13.374;2023-06-14T10:43:34;22.90;79.80
2130;DHT22;1071;52.544;13.374;2023-06-14T10:46:17;22.90;79.40
2130;DHT22;1071;52.544;13.374;2023-06-14T10:48:48;22.90;79.20
2130;DHT22;1071;52.544;13.374;2023-06-14T10:51:17;23.00;78.90
2130;DHT22;1071;52.544;13.374;2023-06-14T10:53:46;23.00;78.70
2130;DHT22;1071;52.544;13.374;2023-06-14T10:56:29;23.10;77.80
2130;DHT22;1071;52.544;13.374;2023-06-14T10:58:57;23.20;77.10
2130;DHT22;1071;52.544;13.374;2023-06-14T11:01:35;23.30;77.10
2130;DHT22;1071;52.544;13.374;2023-06-14T11:04:07;23.30;76.70
2130;DHT22;1071;52.544;13.374;2023-06-14T11:06:53;23.30;76.50
2130;DHT22;1071;52.544;13.374;2023-06-14T11:09:55;23.30;75.10
2130;DHT22;1071;52.544;13.374;2023-06-14T11:12:32;23.40;75.50
2130;DHT22;1071;52.544;13.374;2023-06-14T11:15:01;23.30;73.80
2130;DHT22;1071;52.544;13.374;2023-06-14T11:17:28;23.40;74.10
2130;DHT22;1071;52.544;13.374;2023-06-14T11:20:08;23.30;74.20
2130;DHT22;1071;52.544;13.374;2023-06-14T11:22:39;23.30;74.10
2130;DHT22;1071;52.544;13.374;2023-06-14T11:25:08;23.30;73.60
2130;DHT22;1071;52.544;13.374;2023-06-14T11:27:37;23.30;73.00
2130;DHT22;1071;52.544;13.374;2023-06-14T11:30:07;23.30;72.60
2130;DHT22;1071;52.544;13.374;2023-06-14T11:32:35;23.30;71.90
2130;DHT22;1071;52.544;13.374;2023-06-14T11:35:02;23.30;72.00
2130;DHT22;1071;52.544;13.374;2023-06-14T11:37:31;23.30;70.60
2130;DHT22;1071;52.544;13.374;2023-06-14T11:39:59;23.40;71.10
2130;DHT22;1071;52.544;13.374;2023-06-14T11:42:27;23.50;71.40
2130;DHT22;1071;52.544;13.374;2023-06-14T11:44:55;23.60;71.30
2130;DHT22;1071;52.544;13.374;2023-06-14T11:47:23;23.70;70.40
2130;DHT22;1071;52.544;13.374;2023-06-14T11:49:51;23.90;70.10
2130;DHT22;1071;52.544;13.374;2023-06-14T11:52:18;24.00;69.30
2130;DHT22;1071;52.544;13.374;2023-06-14T11:54:48;24.00;68.60
2130;DHT22;1071;52.544;13.374;2023-06-14T11:57:18;24.00;68.10
2130;DHT22;1071;52.544;13.374;2023-06-14T11:59:45;24.00;67.90
2130;DHT22;1071;52.544;13.374;2023-06-14T12:02:17;24.00;67.30
2130;DHT22;1071;52.544;13.374;2023-06-14T12:04:52;24.00;67.60
2130;DHT22;1071;52.544;13.374;2023-06-14T12:07:22;24.10;67.10
2130;DHT22;1071;52.544;13.374;2023-06-14T12:10:08;24.10;65.70
2130;DHT22;1071;52.544;13.374;2023-06-14T12:12:37;24.10;65.30
2130;DHT22;1071;52.544;13.374;2023-06-14T12:15:05;24.20;64.10
2130;DHT22;1071;52.544;13.374;2023-06-14T12:17:38;24.10;63.60
2130;DHT22;1071;52.544;13.374;2023-06-14T12:20:09;24.10;62.80
2130;DHT22;1071;52.544;13.374;2023-06-14T12:22:39;24.10;62.60
2130;DHT22;1071;52.544;13.374;2023-06-14T12:25:07;24.00;62.10
2130;DHT22;1071;52.544;13.374;2023-06-14T12:27:39;24.00;62.00
2130;DHT22;1071;52.544;13.374;2023-06-14T12:30:08;24.00;61.90
2130;DHT22;1071;52.544;13.374;2023-06-14T12:36:10;24.20;61.90
2130;DHT22;1071;52.544;13.374;2023-06-14T12:38:37;24.20;61.60
2130;DHT22;1071;52.544;13.374;2023-06-14T12:41:04;24.30;61.30
2130;DHT22;1071;52.544;13.374;2023-06-14T12:43:31;24.30;59.90
2130;DHT22;1071;52.544;13.374;2023-06-14T12:45:59;24.30;59.60
2130;DHT22;1071;52.544;13.374;2023-06-14T12:48:26;24.20;59.40
2130;DHT22;1071;52.544;13.374;2023-06-14T12:50:55;24.30;59.60
2130;DHT22;1071;52.544;13.374;2023-06-14T12:53:25;24.30;58.40
2130;DHT22;1071;52.544;13.374;2023-06-14T12:55:52;24.40;58.20
2130;DHT22;1071;52.544;13.374;2023-06-14T12:58:19;24.50;57.90
2130;DHT22;1071;52.544;13.374;2023-06-14T13:00:48;24.50;57.70
2130;DHT22;1071;52.544;13.374;2023-06-14T13:03:15;24.60;58.30
2130;DHT22;1071;52.544;13.374;2023-06-14T13:05:42;24.60;58.70
2130;DHT22;1071;52.544;13.374;2023-06-14T13:08:09;24.60;57.90
2130;DHT22;1071;52.544;13.374;2023-06-14T13:10:38;24.70;58.00
2130;DHT22;1071;52.544;13.374;2023-06-14T13:13:05;24.70;57.80
2130;DHT22;1071;52.544;13.374;2023-06-14T13:15:33;24.70;57.40
2130;DHT22;1071;52.544;13.374;2023-06-14T13:18:01;24.80;57.60
2130;DHT22;1071;52.544;13.374;2023-06-14T13:20:28;24.80;57.60
2130;DHT22;1071;52.544;13.374;2023-06-14T13:22:55;24.90;57.70
2130;DHT22;1071;52.544;13.374;2023-06-14T13:25:22;24.90;57.90
2130;DHT22;1071;52.544;13.374;2023-06-14T13:27:51;25.00;58.00
2130;DHT22;1071;52.544;13.374;2023-06-14T13:30:18;25.00;57.70
2130;DHT22;1071;52.544;13.374;2023-06-14T13:32:47;25.00;57.20
2130;DHT22;1071;52.544;13.374;2023-06-14T13:35:14;25.00;56.00
2130;DHT22;1071;52.544;13.374;2023-06-14T13:37:44;25.00;55.70
2130;DHT22;1071;52.544;13.374;2023-06-14T13:40:12;25.10;55.40
2130;DHT22;1071;52.544;13.374;2023-06-14T13:42:39;25.10;55.10
2130;DHT22;1071;52.544;13.374;2023-06-14T13:45:11;25.10;54.00
2130;DHT22;1071;52.544;13.374;2023-06-14T13:47:42;25.10;54.20
2130;DHT22;1071;52.544;13.374;2023-06-14T13:50:09;25.20;54.20
2130;DHT22;1071;52.544;13.374;2023-06-14T13:52:36;25.20;54.00
2130;DHT22;1071;52.544;13.374;2023-06-14T13:55:04;25.20;54.10
2130;DHT22;1071;52.544;13.374;2023-06-14T13:57:31;25.20;54.20
2130;DHT22;1071;52.544;13.374;2023-06-14T13:59:59;25.20;53.90
2130;DHT22;1071;52.544;13.374;2023-06-14T14:02:30;25.20;54.30
2130;DHT22;1071;52.544;13.374;2023-06-14T14:04:57;25.20;54.20
2130;DHT22;1071;52.544;13.374;2023-06-14T14:07:24;25.30;54.00
2130;DHT22;1071;52.544;13.374;2023-06-14T14:09:52;25.30;53.90
2130;DHT22;1071;52.544;13.374;2023-06-14T14:12:19;25.30;53.90
2130;DHT22;1071;52.544;13.374;2023-06-14T14:14:46;25.30;53.70
2130;DHT22;1071;52.544;13.374;2023-06-14T14:17:13;25.30;53.60
2130;DHT22;1071;52.544;13.374;2023-06-14T14:19:44;25.30;53.00
2130;DHT22;1071;52.544;13.374;2023-06-14T14:22:12;25.20;53.40
2130;DHT22;1071;52.544;13.374;2023-06-14T14:24:39;25.10;54.30
2130;DHT22;1071;52.544;13.374;2023-06-14T14:27:06;25.20;55.20
2130;DHT22;1071;52.544;13.374;2023-06-14T14:29:33;25.20;56.10
2130;DHT22;1071;52.544;13.374;2023-06-14T14:32:01;25.20;56.50
2130;DHT22;1071;52.544;13.374;2023-06-14T14:34:28;25.20;56.60
2130;DHT22;1071;52.544;13.374;2023-06-14T14:36:56;25.20;56.70
2130;DHT22;1071;52.544;13.374;2023-06-14T14:39:23;25.10;56.90
2130;DHT22;1071;52.544;13.374;2023-06-14T14:41:50;25.10;56.80
2130;DHT22;1071;52.544;13.374;2023-06-14T14:44:17;25.10;56.90
2130;DHT22;1071;52.544;13.374;2023-06-14T14:46:45;25.10;57.00
2130;DHT22;1071;52.544;13.374;2023-06-14T14:49:12;25.00;57.10
2130;DHT22;1071;52.544;13.374;2023-06-14T14:51:39;24.90;57.30
2130;DHT22;1071;52.544;13.374;2023-06-14T14:54:08;24.90;57.40
2130;DHT22;1071;52.544;13.374;2023-06-14T14:56:35;24.80;57.30
2130;DHT22;1071;52.544;13.374;2023-06-14T14:59:03;24.80;57.40
2130;DHT22;1071;52.544;13.374;2023-06-14T15:01:30;24.80;57.40
2130;DHT22;1071;52.544;13.374;2023-06-14T15:03:57;24.80;57.70
2130;DHT22;1071;52.544;13.374;2023-06-14T15:06:25;24.70;57.70
2130;DHT22;1071;52.544;13.374;2023-06-14T15:08:52;24.60;57.90
2130;DHT22;1071;52.544;13.374;2023-06-14T15:11:21;24.50;58.00
2130;DHT22;1071;52.544;13.374;2023-06-14T15:13:48;24.50;58.20
2130;DHT22;1071;52.544;13.374;2023-06-14T15:16:15;24.40;58.10
2130;DHT22;1071;52.544;13.374;2023-06-14T15:18:43;24.40;58.00
2130;DHT22;1071;52.544;13.374;2023-06-14T15:21:10;24.30;57.90
2130;DHT22;1071;52.544;13.374;2023-06-14T15:23:37;24.30;58.00
2130;DHT22;1071;52.544;13.374;2023-06-14T15:26:04;24.20;58.00
2130;DHT22;1071;52.544;13.374;2023-06-14T15:28:33;24.20;58.00
2130;DHT22;1071;52.544;13.374;2023-06-14T15:31:00;24.20;58.10
2130;DHT22;1071;52.544;13.374;2023-06-14T15:33:27;24.10;58.10
2130;DHT22;1071;52.544;13.374;2023-06-14T15:35:54;24.10;58.00
2130;DHT22;1071;52.544;13.374;2023-06-14T15:38:22;24.10;58.20
2130;DHT22;1071;52.544;13.374;2023-06-14T15:40:49;24.10;58.30
2130;DHT22;1071;52.544;13.374;2023-06-14T15:43:20;24.10;58.20
2130;DHT22;1071;52.544;13.374;2023-06-14T15:45:50;24.10;57.90
2130;DHT22;1071;52.544;13.374;2023-06-14T15:48:20;24.20;57.90
2130;DHT22;1071;52.544;13.374;2023-06-14T15:50:53;24.20;57.90
2130;DHT22;1071;52.544;13.374;2023-06-14T15:53:20;24.20;57.70
2130;DHT22;1071;52.544;13.374;2023-06-14T15:55:48;24.20;57.70
2130;DHT22;1071;52.544;13.374;2023-06-14T15:58:15;24.30;57.70
2130;DHT22;1071;52.544;13.374;2023-06-14T16:00:42;24.30;57.70